createdAt,value
2022-11-13T00:03:16.525Z,22.50
2022-11-13T00:06:37.301Z,24.13
2022-11-13T00:09:58.410Z,22.35
2022-11-13T00:13:19.836Z,23.93
2022-11-13T00:16:41.134Z,24.38
2022-11-13T00:20:02.303Z,24.02
2022-11-13T00:23:23.758Z,24.67
2022-11-13T00:26:45.517Z,24.42
2022-11-13T00:30:07.522Z,27.55
2022-11-13T00:33:55.091Z,24.27
2022-11-13T00:37:09.885Z,25.20
2022-11-13T00:40:31.160Z,23.00
2022-11-13T00:43:52.873Z,29.83
2022-11-13T00:47:14.076Z,31.03
2022-11-13T00:50:35.189Z,28.75
2022-11-13T00:53:56.728Z,29.48
2022-11-13T00:57:17.878Z,29.67
2022-11-13T01:00:41.005Z,29.83
2022-11-13T01:04:02.581Z,31.75
2022-11-13T01:07:23.634Z,30.10
2022-11-13T01:10:53.523Z,31.67
2022-11-13T01:14:14.761Z,30.27
2022-11-13T01:17:36.183Z,26.63
2022-11-13T01:21:09.723Z,28.50
2022-11-13T01:24:31.838Z,25.60
2022-11-13T01:27:53.492Z,28.42
2022-11-13T01:31:21.306Z,29.73
2022-11-13T01:34:42.536Z,28.00
2022-11-13T01:38:04.172Z,28.95
2022-11-13T01:41:27.985Z,26.38
2022-11-13T01:44:52.944Z,29.43
2022-11-13T01:48:13.930Z,30.67
2022-11-13T01:51:42.779Z,29.75
2022-11-13T01:55:17.929Z,31.40
2022-11-13T01:58:41.002Z,28.75
2022-11-13T02:02:02.361Z,28.00
2022-11-13T02:05:23.521Z,30.48
2022-11-13T02:08:45.483Z,28.27
2022-11-13T02:12:10.678Z,29.65
2022-11-13T02:15:34.739Z,28.98
2022-11-13T02:18:56.287Z,29.43
2022-11-13T02:22:29.923Z,28.45
2022-11-13T02:25:53.655Z,26.17
2022-11-13T02:29:14.795Z,28.03
2022-11-13T02:32:36.205Z,25.85
2022-11-13T02:35:57.244Z,28.60
2022-11-13T02:39:19.010Z,26.75
2022-11-13T02:42:40.472Z,28.13
2022-11-13T02:46:01.838Z,27.45
2022-11-13T02:49:23.063Z,24.80
2022-11-13T02:52:44.440Z,24.07
2022-11-13T02:56:06.298Z,23.70
2022-11-13T02:59:27.841Z,24.45
2022-11-13T03:02:48.800Z,22.63
2022-11-13T03:06:10.760Z,22.55
2022-11-13T03:09:31.929Z,21.15
2022-11-13T03:12:53.730Z,21.60
2022-11-13T03:16:16.613Z,19.88
2022-11-13T03:19:38.016Z,19.92
2022-11-13T03:22:58.800Z,20.02
2022-11-13T03:26:20.443Z,17.60
2022-11-13T03:29:41.522Z,18.80
2022-11-13T03:33:03.156Z,19.05
2022-11-13T03:36:24.675Z,19.30
2022-11-13T03:39:45.942Z,19.02
2022-11-13T03:43:07.003Z,17.98
2022-11-13T03:46:28.527Z,17.00
2022-11-13T03:49:49.569Z,17.55
2022-11-13T03:53:10.789Z,16.77
2022-11-13T03:56:31.442Z,17.70
2022-11-13T03:59:52.877Z,16.63
2022-11-13T04:03:14.398Z,16.13
2022-11-13T04:06:36.890Z,16.15
2022-11-13T04:09:58.955Z,15.57
2022-11-13T04:13:19.999Z,15.32
2022-11-13T04:16:41.376Z,15.38
2022-11-13T04:20:03.600Z,15.50
2022-11-13T04:23:24.709Z,16.23
2022-11-13T04:26:45.866Z,17.92
2022-11-13T04:30:07.367Z,16.77
2022-11-13T04:33:29.485Z,16.63
2022-11-13T04:36:50.435Z,18.98
2022-11-13T04:40:12.241Z,19.33
2022-11-13T04:43:33.870Z,19.50
2022-11-13T04:46:54.978Z,17.38
2022-11-13T04:50:16.974Z,16.55
2022-11-13T04:53:38.434Z,14.52
2022-11-13T04:56:59.604Z,16.40
2022-11-13T05:00:20.570Z,15.80
2022-11-13T05:03:41.531Z,15.40
2022-11-13T05:07:02.966Z,15.70
2022-11-13T05:10:24.161Z,16.50
2022-11-13T05:13:45.500Z,15.63
2022-11-13T05:17:08.835Z,16.23
2022-11-13T05:20:30.421Z,15.60
2022-11-13T05:23:51.965Z,16.27
2022-11-13T05:27:17.317Z,18.00
2022-11-13T05:30:38.793Z,17.33
2022-11-13T05:34:05.362Z,17.08
2022-11-13T05:37:29.197Z,18.23
2022-11-13T05:40:50.520Z,18.23
2022-11-13T05:44:11.685Z,18.83
2022-11-13T05:47:33.702Z,20.20
2022-11-13T05:51:00.323Z,20.40
2022-11-13T05:54:21.407Z,25.25
2022-11-13T05:57:42.515Z,25.15
2022-11-13T06:01:12.520Z,23.45
2022-11-13T06:04:34.158Z,23.13
2022-11-13T06:07:55.533Z,26.52
2022-11-13T06:11:19.171Z,24.98
2022-11-13T06:14:40.775Z,28.03
2022-11-13T06:18:02.035Z,27.65
2022-11-13T06:21:25.852Z,24.63
2022-11-13T06:24:47.097Z,24.97
2022-11-13T06:28:08.463Z,24.13
2022-11-13T06:31:32.294Z,27.17
2022-11-13T06:34:53.409Z,26.98
2022-11-13T06:38:14.398Z,27.85
2022-11-13T06:41:35.821Z,27.63
2022-11-13T06:44:57.706Z,24.60
2022-11-13T06:48:19.357Z,22.37
2022-11-13T06:51:40.640Z,22.27
2022-11-13T06:55:01.759Z,22.75
2022-11-13T06:58:23.257Z,23.17
2022-11-13T07:01:44.458Z,21.95
2022-11-13T07:05:05.646Z,23.15
2022-11-13T07:08:37.591Z,26.00
2022-11-13T07:11:58.452Z,29.27
2022-11-13T07:15:19.979Z,30.38
2022-11-13T07:18:41.166Z,28.00
2022-11-13T07:22:03.781Z,26.90
2022-11-13T07:25:25.472Z,27.90
2022-11-13T07:28:47.634Z,29.63
2022-11-13T07:32:09.045Z,25.90
2022-11-13T07:35:30.177Z,25.85
2022-11-13T07:38:55.554Z,26.38
2022-11-13T07:42:19.508Z,26.65
2022-11-13T07:45:40.694Z,24.23
2022-11-13T07:49:02.274Z,27.67
2022-11-13T07:52:23.369Z,26.08
2022-11-13T07:55:44.697Z,28.20
2022-11-13T07:59:06.100Z,27.52
2022-11-13T08:02:27.423Z,26.73
2022-11-13T08:05:48.610Z,27.27
2022-11-13T08:09:09.741Z,25.15
2022-11-13T08:12:30.558Z,24.20
2022-11-13T08:15:52.166Z,25.27
2022-11-13T08:19:13.438Z,24.88
2022-11-13T08:22:34.973Z,25.90
2022-11-13T08:25:56.778Z,24.88
2022-11-13T08:29:17.754Z,26.17
2022-11-13T08:32:38.986Z,26.52
2022-11-13T08:36:00.629Z,26.20
2022-11-13T08:39:22.257Z,26.43
2022-11-13T08:42:43.917Z,28.23
2022-11-13T08:46:05.598Z,26.60
2022-11-13T08:49:27.080Z,24.85
2022-11-13T08:52:48.129Z,26.52
2022-11-13T08:56:09.353Z,25.60
2022-11-13T08:59:30.593Z,26.33
2022-11-13T09:02:56.236Z,27.87
2022-11-13T09:06:17.741Z,24.23
2022-11-13T09:09:38.958Z,24.80
2022-11-13T09:13:01.957Z,25.83
2022-11-13T09:16:23.465Z,25.80
2022-11-13T09:19:44.255Z,26.48
2022-11-13T09:23:08.134Z,26.38
2022-11-13T09:26:29.251Z,25.20
2022-11-13T09:29:55.350Z,24.27
2022-11-13T09:33:17.163Z,23.40
2022-11-13T09:36:38.240Z,23.50
2022-11-13T09:39:59.311Z,24.00
2022-11-13T09:43:31.299Z,23.40
2022-11-13T09:47:19.890Z,25.10
2022-11-13T09:50:41.829Z,27.83
2022-11-13T09:54:09.995Z,26.63
2022-11-13T09:57:38.389Z,26.02
2022-11-13T10:01:01.042Z,24.90
2022-11-13T10:04:41.553Z,26.80
2022-11-13T10:08:07.987Z,27.70
2022-11-13T10:11:51.278Z,28.27
2022-11-13T10:15:13.157Z,28.30
2022-11-13T10:18:38.176Z,29.85
2022-11-13T10:22:31.692Z,32.03
2022-11-13T10:25:48.144Z,32.53
2022-11-13T10:29:18.526Z,31.63
2022-11-13T10:32:39.610Z,30.77
2022-11-13T10:36:38.172Z,32.15
2022-11-13T10:39:59.367Z,31.45
2022-11-13T10:43:23.719Z,30.10
2022-11-13T10:46:45.187Z,31.13
2022-11-13T10:50:21.635Z,29.25
2022-11-13T10:53:43.298Z,27.65
2022-11-13T10:57:18.119Z,28.87
2022-11-13T11:00:41.578Z,30.85
2022-11-13T11:04:06.445Z,28.77
2022-11-13T11:07:27.779Z,28.10
2022-11-13T11:11:24.358Z,26.17
2022-11-13T11:14:57.404Z,26.70
2022-11-13T11:18:30.611Z,28.00
2022-11-13T11:22:02.444Z,29.53
2022-11-13T11:25:41.466Z,29.25
2022-11-13T11:29:06.222Z,25.48
2022-11-13T11:32:49.808Z,27.73
2022-11-13T11:36:28.547Z,27.60
2022-11-13T11:40:03.701Z,29.10
2022-11-13T11:43:34.337Z,28.35
2022-11-13T11:46:56.100Z,27.27
2022-11-13T11:50:30.364Z,26.80
2022-11-13T11:54:00.147Z,26.30
2022-11-13T11:57:36.911Z,26.73
2022-11-13T12:01:23.886Z,31.10
2022-11-13T12:05:19.917Z,30.10
2022-11-13T12:09:02.825Z,25.10
2022-11-13T12:12:51.773Z,24.30
2022-11-13T12:16:39.819Z,28.88
2022-11-13T12:20:18.392Z,23.88
2022-11-13T12:23:58.019Z,25.45
2022-11-13T12:27:31.454Z,25.52
2022-11-13T12:31:14.530Z,25.25
2022-11-13T12:34:51.971Z,30.33
2022-11-13T12:38:35.030Z,26.55
2022-11-13T12:42:11.638Z,32.00
2022-11-13T12:45:38.844Z,37.17
2022-11-13T12:49:01.094Z,30.52
2022-11-13T12:52:24.365Z,29.30
2022-11-13T12:55:57.110Z,33.97
2022-11-13T12:59:33.817Z,36.88
2022-11-13T13:03:10.410Z,28.42
2022-11-13T13:07:13.634Z,29.17
2022-11-13T13:10:46.574Z,28.53
2022-11-13T13:14:46.889Z,26.58
2022-11-13T13:18:12.392Z,27.23
2022-11-13T13:21:44.432Z,26.83
2022-11-13T13:25:28.162Z,27.73
2022-11-13T13:29:02.191Z,31.08
2022-11-13T13:32:36.228Z,28.25
2022-11-13T13:36:11.233Z,37.60
2022-11-13T13:39:46.832Z,28.05
2022-11-13T13:43:35.206Z,25.98
2022-11-13T13:46:59.730Z,29.83
2022-11-13T13:50:25.255Z,31.63
2022-11-13T13:53:48.049Z,26.83
2022-11-13T13:57:14.766Z,26.80
2022-11-13T14:00:44.664Z,29.00
2022-11-13T14:04:22.154Z,28.73
2022-11-13T14:07:46.450Z,26.95
2022-11-13T14:11:29.816Z,26.25
2022-11-13T14:14:51.643Z,29.38
2022-11-13T14:18:15.294Z,27.50
2022-11-13T14:21:36.563Z,29.27
2022-11-13T14:25:00.300Z,26.40
2022-11-13T14:28:28.889Z,28.38
2022-11-13T14:31:51.487Z,24.93
2022-11-13T14:35:24.811Z,24.33
2022-11-13T14:38:52.201Z,29.95
2022-11-13T14:42:25.279Z,33.20
2022-11-13T14:45:55.476Z,27.60
2022-11-13T14:49:28.566Z,26.98
2022-11-13T14:52:57.402Z,27.92
2022-11-13T14:56:19.019Z,26.30
2022-11-13T14:59:42.509Z,28.60
2022-11-13T15:03:06.793Z,29.58
2022-11-13T15:06:35.976Z,29.10
2022-11-13T15:09:58.071Z,25.95
2022-11-13T15:13:19.336Z,27.00
2022-11-13T15:16:41.052Z,32.38
2022-11-13T15:20:09.277Z,30.42
2022-11-13T15:23:31.166Z,43.58
2022-11-13T15:26:52.442Z,30.48
2022-11-13T15:30:14.724Z,26.60
2022-11-13T15:33:36.435Z,30.08
2022-11-13T15:36:58.056Z,31.08
2022-11-13T15:40:19.709Z,31.50
2022-11-13T15:43:50.140Z,28.10
2022-11-13T15:47:33.399Z,30.77
2022-11-13T15:50:54.866Z,37.03
2022-11-13T15:54:28.560Z,31.58
2022-11-13T15:57:50.608Z,29.45
2022-11-13T16:01:15.879Z,33.60
2022-11-13T16:04:55.534Z,35.00
2022-11-13T16:08:18.055Z,33.55
2022-11-13T16:11:39.936Z,32.72
2022-11-13T16:15:01.037Z,34.57
2022-11-13T16:18:26.313Z,38.80
2022-11-13T16:21:47.900Z,26.73
2022-11-13T16:25:17.453Z,26.90
2022-11-13T16:29:07.322Z,20.73
2022-11-13T16:32:20.732Z,21.08
2022-11-13T16:35:42.054Z,21.23
2022-11-13T16:39:04.639Z,20.93
2022-11-13T16:42:30.801Z,21.42
2022-11-13T16:45:53.382Z,18.98
2022-11-13T16:49:19.031Z,18.40
2022-11-13T16:52:40.357Z,18.20
2022-11-13T16:56:01.791Z,20.05
2022-11-13T16:59:23.370Z,21.38
2022-11-13T17:02:45.517Z,20.95
2022-11-13T17:06:07.304Z,21.83
2022-11-13T17:09:29.286Z,22.10
2022-11-13T17:12:54.456Z,21.33
2022-11-13T17:16:15.617Z,22.27
2022-11-13T17:19:41.148Z,21.05
2022-11-13T17:23:02.227Z,19.73
2022-11-13T17:26:24.413Z,21.58
2022-11-13T17:29:45.833Z,20.73
2022-11-13T17:33:07.154Z,21.42
2022-11-13T17:36:28.576Z,23.45
2022-11-13T17:39:50.311Z,22.15
2022-11-13T17:43:12.002Z,19.63
2022-11-13T17:46:33.565Z,16.63
2022-11-13T17:49:56.137Z,16.77
2022-11-13T17:53:17.358Z,17.25
2022-11-13T17:56:38.575Z,20.93
2022-11-13T17:59:59.796Z,22.33
2022-11-13T18:03:20.819Z,22.90
2022-11-13T18:06:42.397Z,22.17
2022-11-13T18:10:05.618Z,24.92
2022-11-13T18:13:27.079Z,23.30
2022-11-13T18:16:48.469Z,19.38
2022-11-13T18:20:10.734Z,21.53
2022-11-13T18:23:31.761Z,21.48
2022-11-13T18:26:53.735Z,23.48
2022-11-13T18:30:15.419Z,22.23
2022-11-13T18:33:36.871Z,24.33
2022-11-13T18:36:58.374Z,23.73
2022-11-13T18:40:20.266Z,25.58
2022-11-13T18:43:46.880Z,24.73
2022-11-13T18:47:09.569Z,26.25
2022-11-13T18:50:32.036Z,20.48
2022-11-13T18:53:53.722Z,23.57
2022-11-13T18:57:14.753Z,25.52
2022-11-13T19:00:36.710Z,25.00
2022-11-13T19:07:46.528Z,14.32
2022-11-13T19:11:16.245Z,18.08
2022-11-13T19:14:37.432Z,19.52
2022-11-13T19:17:59.251Z,20.88
2022-11-13T19:21:23.729Z,20.95
2022-11-13T19:24:44.787Z,25.50
2022-11-13T19:28:06.982Z,22.80
2022-11-13T19:31:28.491Z,21.73
2022-11-13T19:34:50.094Z,22.10
2022-11-13T19:38:11.771Z,18.33
2022-11-13T19:41:33.222Z,17.40
2022-11-13T19:44:54.958Z,16.05
2022-11-13T19:48:28.555Z,14.77
2022-11-13T19:51:50.040Z,19.58
2022-11-13T19:55:11.373Z,19.23
2022-11-13T19:58:32.660Z,21.15
2022-11-13T20:01:54.641Z,17.43
2022-11-13T20:05:16.370Z,17.05
2022-11-13T20:08:38.251Z,17.25
2022-11-13T20:11:59.535Z,17.03
2022-11-13T20:15:20.927Z,16.05
2022-11-13T20:18:43.167Z,17.85
2022-11-13T20:22:04.229Z,16.27
2022-11-13T20:25:25.804Z,15.10
2022-11-13T20:28:47.799Z,16.45
2022-11-13T20:32:09.215Z,15.75
2022-11-13T20:35:30.641Z,12.70
2022-11-13T20:38:54.677Z,15.77
2022-11-13T20:42:16.304Z,15.55
2022-11-13T20:45:38.588Z,15.07
2022-11-13T20:49:01.309Z,13.13
2022-11-13T20:52:22.415Z,13.55
2022-11-13T20:55:43.833Z,15.80
2022-11-13T20:59:05.617Z,11.57
2022-11-13T21:02:27.401Z,15.07
2022-11-13T21:05:48.682Z,12.98
2022-11-13T21:09:11.368Z,12.20
2022-11-13T21:12:32.575Z,14.65
2022-11-13T21:15:54.628Z,14.73
2022-11-13T21:19:16.532Z,14.73
2022-11-13T21:22:38.319Z,15.07
2022-11-13T21:26:03.727Z,14.00
2022-11-13T21:29:24.953Z,15.98
2022-11-13T21:32:46.238Z,15.45
2022-11-13T21:36:12.758Z,13.05
2022-11-13T21:39:34.627Z,15.93
2022-11-13T21:42:56.819Z,13.63
2022-11-13T21:46:18.640Z,14.23
2022-11-13T21:49:40.226Z,12.98
2022-11-13T21:53:01.301Z,14.23
2022-11-13T21:56:23.657Z,15.30
2022-11-13T21:59:44.793Z,15.98
2022-11-13T22:03:06.552Z,14.95
2022-11-13T22:06:30.161Z,13.70
2022-11-13T22:09:51.103Z,13.77
2022-11-13T22:13:12.132Z,13.40
2022-11-13T22:16:35.268Z,11.03
2022-11-13T22:19:56.488Z,12.35
2022-11-13T22:23:18.084Z,12.45
2022-11-13T22:26:41.963Z,12.23
2022-11-13T22:30:03.549Z,13.05
2022-11-13T22:33:30.105Z,13.63
2022-11-13T22:36:51.897Z,10.80
2022-11-13T22:40:13.914Z,11.73
2022-11-13T22:43:37.863Z,12.77
2022-11-13T22:46:59.082Z,12.77
2022-11-13T22:50:20.357Z,11.13
2022-11-13T22:53:42.875Z,11.27
2022-11-13T22:57:04.473Z,12.25
2022-11-13T23:00:25.510Z,11.53
2022-11-13T23:03:48.900Z,10.57
2022-11-13T23:07:10.077Z,11.30
2022-11-13T23:10:31.212Z,12.18
2022-11-13T23:13:54.815Z,12.63
2022-11-13T23:17:16.046Z,12.18
2022-11-13T23:20:42.418Z,12.18
2022-11-13T23:24:03.909Z,12.47
2022-11-13T23:27:24.787Z,11.70
2022-11-13T23:30:46.311Z,12.35
2022-11-13T23:34:07.370Z,13.30
2022-11-13T23:37:28.594Z,11.95
2022-11-13T23:40:57.886Z,11.68
2022-11-13T23:44:19.678Z,10.77
2022-11-13T23:47:40.770Z,10.15
2022-11-13T23:51:02.987Z,9.77
2022-11-13T23:54:24.310Z,10.48
2022-11-13T23:57:45.212Z,11.70
